Time;durP1;ratioP1;P1;durP2;ratioP2;P2;SDS_P1;SDS_P2;PMS_P1;PMS_P2;Temp;Humidity;BMP_temperature;BMP_pressure;BME280_temperature;BME280_humidity;BME280_pressure;Samples;Min_cycle;Max_cycle;Signal;HPM_P1;HPM_P2
2023/04/06 00:01:57;;;;;;;7.05;1.87;;;;;;;8.43;32.17;99732.28;4417671;32;33541;-62
2023/04/06 00:04:25;;;;;;;1.05;0.90;;;;;;;8.29;32.43;99728.66;4411135;32;33344;-61
2023/04/06 00:06:52;;;;;;;3.42;2.17;;;;;;;8.54;31.90;99730.59;4415830;32;33854;-62
2023/04/06 00:09:20;;;;;;;4.68;2.35;;;;;;;8.67;31.71;99729.75;4414114;32;34936;-61
2023/04/06 00:11:48;;;;;;;3.47;2.15;;;;;;;8.39;32.11;99721.81;4418827;32;33464;-61
2023/04/06 00:14:17;;;;;;;5.30;2.70;;;;;;;8.44;32.02;99726.81;4417289;32;33547;-61
2023/04/06 00:16:44;;;;;;;2.12;1.77;;;;;;;8.77;31.23;99721.06;4415622;32;35278;-62
2023/04/06 00:19:12;;;;;;;5.28;3.47;;;;;;;8.53;31.83;99717.34;4411613;32;34053;-62
2023/04/06 00:21:40;;;;;;;2.58;2.12;;;;;;;8.73;31.31;99719.56;4417889;32;33341;-62
2023/04/06 00:24:07;;;;;;;2.10;1.60;;;;;;;8.73;31.44;99716.91;4414980;32;34233;-62
2023/04/06 00:26:35;;;;;;;3.28;1.45;;;;;;;8.73;31.39;99718.69;4418683;32;33852;-62
2023/04/06 00:29:03;;;;;;;1.55;1.30;;;;;;;8.75;31.23;99720.28;4416655;32;35562;-62
2023/04/06 00:31:30;;;;;;;1.65;1.40;;;;;;;8.81;30.95;99727.03;4421590;32;33335;-61
2023/04/06 00:33:58;;;;;;;2.45;1.55;;;;;;;8.87;30.81;99718.63;4415386;32;34815;-63
2023/04/06 00:36:26;;;;;;;1.73;1.60;;;;;;;8.77;30.93;99712.19;4417263;32;33993;-63
2023/04/06 00:38:53;;;;;;;4.18;2.03;;;;;;;8.52;31.23;99703.16;4417461;32;33832;-61
2023/04/06 00:41:21;;;;;;;1.98;1.58;;;;;;;8.43;31.12;99702.94;4416818;32;33320;-60
2023/04/06 00:43:49;;;;;;;1.77;1.67;;;;;;;8.37;31.58;99706.81;4420297;32;33752;-62
2023/04/06 00:46:16;;;;;;;0.93;0.93;;;;;;;8.27;32.01;99700.38;4417179;32;34048;-60
2023/04/06 00:48:44;;;;;;;1.52;1.42;;;;;;;8.20;32.32;99693.75;4413545;32;33979;-60
2023/04/06 00:51:11;;;;;;;3.45;2.10;;;;;;;8.17;31.65;99692.12;4418213;32;33677;-61
2023/04/06 00:53:39;;;;;;;2.05;1.75;;;;;;;8.05;32.15;99696.44;4416934;32;33845;-60
2023/04/06 00:56:09;;;;;;;3.37;2.33;;;;;;;8.00;31.99;99690.59;4417486;32;34056;-61
2023/04/06 00:58:38;;;;;;;1.65;1.55;;;;;;;7.68;32.83;99693.50;4418130;32;35109;-61
2023/04/06 01:01:06;;;;;;;1.30;1.15;;;;;;;7.75;32.35;99693.97;4417436;32;33005;-61
2023/04/06 01:03:34;;;;;;;1.60;1.50;;;;;;;7.74;32.81;99702.94;4417501;32;34514;-61
2023/04/06 01:06:02;;;;;;;2.45;1.30;;;;;;;7.76;32.43;99701.00;4415944;32;33023;-61
2023/04/06 01:08:30;;;;;;;5.95;1.83;;;;;;;7.50;32.80;99694.66;4416506;32;34118;-61
2023/04/06 01:11:00;;;;;;;3.03;2.35;;;;;;;7.26;33.66;99704.19;4417359;32;33805;-61
2023/04/06 01:13:28;;;;;;;1.23;1.12;;;;;;;7.19;33.56;99701.03;4417531;32;34038;-61
2023/04/06 01:15:56;;;;;;;2.00;1.45;;;;;;;7.41;33.01;99700.56;4417255;32;32725;-61
2023/04/06 01:18:28;;;;;;;8.02;1.92;;;;;;;7.09;33.76;99713.19;4414429;32;33657;-62
2023/04/06 01:20:57;;;;;;;0.88;0.88;;;;;;;7.09;33.96;99703.41;4421911;32;33354;-62
2023/04/06 01:23:25;;;;;;;3.67;2.05;;;;;;;6.91;34.13;99707.19;4416455;32;33758;-62
2023/04/06 01:25:52;;;;;;;0.98;0.98;;;;;;;6.69;34.44;99705.81;4416418;32;35166;-63
2023/04/06 01:28:20;;;;;;;1.12;1.02;;;;;;;7.10;33.70;99714.94;4417890;32;34886;-61
2023/04/06 01:30:51;;;;;;;1.30;1.20;;;;;;;7.00;34.02;99704.00;4418351;32;34774;-62
2023/04/06 01:33:19;;;;;;;7.32;3.30;;;;;;;7.03;34.64;99702.91;4415235;32;33853;-62
2023/04/06 01:35:48;;;;;;;2.33;1.67;;;;;;;7.23;33.56;99699.91;4418082;32;33335;-61
2023/04/06 01:38:16;;;;;;;2.97;1.50;;;;;;;7.31;33.29;99707.41;4415374;32;32360;-62
2023/04/06 01:40:45;;;;;;;2.65;2.45;;;;;;;7.35;33.25;99699.16;4420153;32;34394;-63
2023/04/06 01:43:12;;;;;;;7.95;2.03;;;;;;;7.33;33.26;99695.72;4416041;32;34759;-61
2023/04/06 01:45:41;;;;;;;4.87;2.55;;;;;;;7.35;33.14;99695.63;4416880;32;32463;-61
2023/04/06 01:48:09;;;;;;;5.87;2.92;;;;;;;7.46;33.02;99696.66;4417135;32;33993;-61
2023/04/06 01:50:37;;;;;;;4.47;2.97;;;;;;;7.34;33.68;99697.41;4417530;32;34364;-61
2023/04/06 01:53:05;;;;;;;3.30;2.25;;;;;;;7.19;33.45;99688.59;4418088;32;32559;-62
2023/04/06 01:55:33;;;;;;;3.67;1.85;;;;;;;7.04;33.72;99692.19;4426675;32;35117;-62
2023/04/06 01:58:03;;;;;;;4.18;2.70;;;;;;;7.00;33.83;99685.34;4418446;32;34354;-61
2023/04/06 02:00:31;;;;;;;1.65;1.55;;;;;;;6.95;33.95;99690.09;4419441;32;33627;-62
2023/04/06 02:02:59;;;;;;;3.58;1.95;;;;;;;7.01;33.92;99687.06;4427436;32;33942;-64
2023/04/06 02:05:28;;;;;;;2.95;2.05;;;;;;;7.04;33.91;99686.88;4415630;32;33982;-63
2023/04/06 02:07:56;;;;;;;4.55;2.47;;;;;;;7.10;33.77;99688.31;4418720;32;34117;-64
2023/04/06 02:10:26;;;;;;;2.05;1.77;;;;;;;7.07;34.55;99683.19;4425943;32;33578;-63
2023/04/06 02:12:57;;;;;;;2.15;1.95;;;;;;;6.93;34.17;99682.22;4419582;32;34239;-61
2023/04/06 02:15:25;;;;;;;1.95;1.40;;;;;;;6.86;34.16;99685.31;4413551;32;34012;-61
2023/04/06 02:17:53;;;;;;;1.85;1.58;;;;;;;6.71;34.48;99679.13;4416985;32;35164;-61
2023/04/06 02:20:21;;;;;;;2.45;2.25;;;;;;;6.85;34.44;99678.28;4420037;32;33183;-61
2023/04/06 02:22:49;;;;;;;2.40;2.05;;;;;;;6.91;34.17;99675.28;4419396;32;33551;-61
2023/04/06 02:25:17;;;;;;;2.08;1.80;;;;;;;6.86;34.32;99675.53;4417976;32;34088;-61
2023/04/06 02:27:44;;;;;;;3.80;2.35;;;;;;;6.92;34.30;99669.84;4418190;32;34088;-61
2023/04/06 02:30:12;;;;;;;1.20;1.10;;;;;;;7.07;33.87;99668.06;4419364;32;32661;-61
2023/04/06 02:32:40;;;;;;;1.75;1.25;;;;;;;7.19;33.80;99671.75;4418802;32;34632;-62
2023/04/06 02:35:08;;;;;;;3.65;2.15;;;;;;;7.22;33.75;99672.44;4417737;32;34944;-62
2023/04/06 02:37:37;;;;;;;1.52;1.37;;;;;;;7.28;33.45;99659.69;4418081;32;33970;-61
2023/04/06 02:40:06;;;;;;;3.95;2.80;;;;;;;7.11;33.77;99658.94;4420757;32;33628;-61
2023/04/06 02:42:34;;;;;;;4.70;2.78;;;;;;;7.21;33.60;99654.75;4420244;32;35019;-62
2023/04/06 02:45:03;;;;;;;1.40;1.30;;;;;;;7.22;33.68;99661.78;4417097;32;32944;-61
2023/04/06 02:47:33;;;;;;;2.10;1.90;;;;;;;7.25;33.99;99655.41;4418802;32;34965;-63
2023/04/06 02:50:01;;;;;;;4.95;2.12;;;;;;;7.28;33.44;99657.87;4420398;32;33741;-61
2023/04/06 02:52:30;;;;;;;2.70;1.98;;;;;;;7.14;33.75;99655.22;4423751;32;33491;-62
2023/04/06 02:54:57;;;;;;;3.85;3.08;;;;;;;7.11;34.46;99661.59;4418503;32;33746;-62
2023/04/06 02:57:25;;;;;;;4.28;2.28;;;;;;;7.17;33.46;99655.03;4418795;32;34859;-61
2023/04/06 02:59:53;;;;;;;1.42;1.33;;;;;;;7.22;33.46;99656.47;4416809;32;32113;-62
2023/04/06 03:02:21;;;;;;;1.85;1.42;;;;;;;7.32;33.48;99653.19;4418275;32;32811;-62
2023/04/06 03:04:49;;;;;;;4.65;3.15;;;;;;;7.29;33.59;99643.63;4416713;32;33534;-61
2023/04/06 03:07:17;;;;;;;1.90;1.55;;;;;;;7.34;33.23;99651.31;4413026;32;33726;-62
2023/04/06 03:09:45;;;;;;;3.75;3.10;;;;;;;7.36;33.31;99652.09;4414197;32;32848;-62
2023/04/06 03:12:12;;;;;;;2.33;1.65;;;;;;;7.33;33.47;99654.94;4414716;32;34522;-61
2023/04/06 03:14:40;;;;;;;3.03;2.45;;;;;;;7.14;33.87;99650.75;4419166;32;34624;-61
2023/04/06 03:17:08;;;;;;;3.95;3.37;;;;;;;7.17;33.56;99652.38;4416745;32;34868;-62
2023/04/06 03:19:36;;;;;;;2.08;1.92;;;;;;;7.19;33.68;99651.34;4417811;32;33445;-64
2023/04/06 03:22:04;;;;;;;4.57;3.00;;;;;;;7.14;33.44;99648.09;4417875;32;32469;-64
2023/04/06 03:24:31;;;;;;;2.85;1.90;;;;;;;7.22;33.47;99656.47;4416368;32;33948;-64
2023/04/06 03:27:00;;;;;;;5.93;2.10;;;;;;;7.24;33.91;99651.03;4418035;32;34454;-62
2023/04/06 03:29:28;;;;;;;10.02;3.42;;;;;;;7.39;33.38;99650.06;4419022;32;33584;-62
2023/04/06 03:31:55;;;;;;;1.48;1.37;;;;;;;7.28;33.74;99649.87;4418390;32;33668;-62
2023/04/06 03:34:24;;;;;;;5.12;2.95;;;;;;;7.11;33.90;99645.63;4418385;32;33915;-64
2023/04/06 03:36:52;;;;;;;4.87;3.70;;;;;;;7.15;34.00;99655.12;4417258;32;35119;-62
2023/04/06 03:39:36;;;;;;;3.28;2.83;;;;;;;6.82;34.97;99639.44;4418581;32;32299;-61
2023/04/06 03:42:04;;;;;;;3.33;3.03;;;;;;;6.86;34.42;99656.91;4418811;32;33849;-62
2023/04/06 03:44:32;;;;;;;7.62;1.95;;;;;;;6.91;34.21;99656.66;4416067;32;32854;-63
2023/04/06 03:46:59;;;;;;;7.05;2.75;;;;;;;6.86;34.26;99656.06;4417307;32;35110;-63
2023/04/06 03:49:27;;;;;;;5.72;3.03;;;;;;;6.81;34.27;99651.03;4420303;32;33493;-62
2023/04/06 03:51:56;;;;;;;3.70;1.73;;;;;;;6.75;34.56;99656.72;4418090;32;34160;-64
2023/04/06 03:54:23;;;;;;;2.53;2.00;;;;;;;6.70;34.60;99650.81;4417062;32;33789;-63
2023/04/06 03:56:51;;;;;;;3.90;1.95;;;;;;;6.84;34.44;99649.97;4404946;32;220298;-61
2023/04/06 03:59:19;;;;;;;6.70;3.12;;;;;;;6.73;34.50;99654.12;4415454;32;33732;-61
2023/04/06 04:01:47;;;;;;;8.95;3.30;;;;;;;6.59;34.93;99653.28;4417180;32;34615;-61
2023/04/06 04:04:14;;;;;;;3.47;3.15;;;;;;;6.52;34.92;99658.09;4418442;32;33630;-61
2023/04/06 04:06:42;;;;;;;4.32;2.28;;;;;;;6.38;35.28;99650.06;4418816;32;33800;-61
2023/04/06 04:09:09;;;;;;;4.60;4.20;;;;;;;6.48;35.46;99652.06;4417886;32;34968;-61
2023/04/06 04:11:37;;;;;;;2.97;2.60;;;;;;;6.60;35.67;99644.34;4416229;32;33827;-61
2023/04/06 04:14:05;;;;;;;2.75;1.60;;;;;;;6.54;35.21;99640.22;4418995;32;33793;-61
2023/04/06 04:16:32;;;;;;;3.83;2.92;;;;;;;6.52;36.10;99643.00;4412850;32;34198;-63
2023/04/06 04:19:00;;;;;;;2.92;2.20;;;;;;;6.84;34.89;99645.53;4418896;32;32295;-62
2023/04/06 04:21:30;;;;;;;1.83;1.70;;;;;;;6.89;35.01;99645.22;4418871;32;33990;-61
2023/04/06 04:23:58;;;;;;;1.42;1.33;;;;;;;6.99;34.78;99638.38;4419291;32;34318;-60
2023/04/06 04:26:26;;;;;;;2.58;2.05;;;;;;;7.03;34.23;99642.59;4417281;32;34242;-61
2023/04/06 04:28:54;;;;;;;3.70;2.40;;;;;;;7.01;34.65;99644.47;4418510;32;33254;-61
2023/04/06 04:31:22;;;;;;;2.58;2.33;;;;;;;7.10;33.89;99646.56;4415822;32;33736;-60
2023/04/06 04:33:51;;;;;;;1.40;1.30;;;;;;;7.20;33.77;99644.19;4418764;32;32916;-61
2023/04/06 04:36:21;;;;;;;3.08;2.78;;;;;;;7.11;34.46;99650.94;4416584;32;33480;-61
2023/04/06 04:38:49;;;;;;;1.65;1.55;;;;;;;7.32;34.57;99647.88;4416114;32;33615;-62
2023/04/06 04:41:17;;;;;;;4.93;2.17;;;;;;;7.43;33.57;99645.41;4416304;32;34884;-62
2023/04/06 04:43:45;;;;;;;7.90;4.35;;;;;;;7.47;33.26;99641.59;4422182;32;34149;-61
2023/04/06 04:46:13;;;;;;;4.47;2.75;;;;;;;7.48;33.60;99645.97;4425682;32;35005;-61
2023/04/06 04:48:41;;;;;;;5.62;2.33;;;;;;;7.52;33.82;99641.31;4417457;32;33292;-61
2023/04/06 04:51:09;;;;;;;2.95;2.35;;;;;;;7.65;33.74;99647.56;4418629;32;33731;-61
2023/04/06 04:53:37;;;;;;;6.78;3.72;;;;;;;7.70;33.74;99641.00;4416910;32;33851;-61
2023/04/06 04:56:06;;;;;;;4.53;3.03;;;;;;;7.80;33.45;99640.38;4418492;32;34092;-62
2023/04/06 04:58:35;;;;;;;1.87;1.75;;;;;;;7.64;33.42;99625.41;4416355;32;33827;-62
2023/04/06 05:01:03;;;;;;;3.55;2.35;;;;;;;7.62;33.06;99629.97;4414632;32;33700;-62
2023/04/06 05:03:32;;;;;;;3.25;2.95;;;;;;;7.54;33.30;99634.06;4410898;32;32892;-61
2023/04/06 05:06:00;;;;;;;5.37;3.03;;;;;;;7.51;33.64;99626.25;4417898;32;32943;-62
2023/04/06 05:08:28;;;;;;;2.08;1.87;;;;;;;7.53;34.13;99624.38;4417134;32;32959;-62
2023/04/06 05:10:56;;;;;;;2.87;2.05;;;;;;;7.56;33.65;99622.38;4418160;32;33552;-62
2023/04/06 05:13:24;;;;;;;5.90;4.15;;;;;;;7.72;33.19;99622.22;4415037;32;34845;-61
2023/04/06 05:15:52;;;;;;;5.20;3.00;;;;;;;7.96;33.01;99629.56;4417088;32;34027;-61
2023/04/06 05:18:21;;;;;;;10.27;4.18;;;;;;;7.58;34.05;99636.44;4413844;32;33441;-64
2023/04/06 05:20:51;;;;;;;6.45;4.43;;;;;;;7.87;33.65;99629.22;4416298;32;33473;-61
2023/04/06 05:23:19;;;;;;;9.30;3.42;;;;;;;8.09;33.30;99635.78;4412158;32;33401;-61
2023/04/06 05:25:48;;;;;;;4.18;2.75;;;;;;;8.31;33.06;99628.06;4418375;32;34375;-62
2023/04/06 05:28:16;;;;;;;6.80;4.70;;;;;;;8.48;31.96;99621.66;4421338;32;33752;-63
2023/04/06 05:30:44;;;;;;;7.00;3.72;;;;;;;8.58;31.68;99613.88;4418715;32;33531;-67
2023/04/06 05:33:12;;;;;;;7.32;4.37;;;;;;;8.56;31.62;99619.28;4416925;32;33634;-62
2023/04/06 05:35:41;;;;;;;3.80;3.28;;;;;;;8.20;33.25;99613.78;4426359;32;34071;-62
2023/04/06 05:38:12;;;;;;;9.50;3.42;;;;;;;8.45;32.27;99607.66;4425525;32;34466;-63
2023/04/06 05:40:40;;;;;;;2.28;2.05;;;;;;;8.24;32.51;99602.78;4418988;32;32579;-62
2023/04/06 05:43:08;;;;;;;2.37;1.95;;;;;;;8.30;32.40;99602.38;4415140;32;35225;-62
2023/04/06 05:45:37;;;;;;;4.28;3.05;;;;;;;8.46;32.01;99610.22;4417707;32;35139;-62
2023/04/06 05:48:05;;;;;;;3.05;2.15;;;;;;;8.26;32.67;99602.69;4414161;32;33516;-61
2023/04/06 05:50:33;;;;;;;7.25;3.42;;;;;;;7.98;34.23;99609.84;4415725;32;33807;-63
2023/04/06 05:53:00;;;;;;;3.05;1.90;;;;;;;7.98;33.99;99606.34;4418165;32;34025;-62
2023/04/06 05:55:29;;;;;;;2.70;1.73;;;;;;;8.52;32.82;99607.13;4419877;32;33955;-62
2023/04/06 05:57:57;;;;;;;2.10;1.90;;;;;;;8.06;34.38;99596.87;4427058;32;33534;-61
2023/04/06 06:00:26;;;;;;;4.40;2.80;;;;;;;7.55;35.19;99601.16;4417446;32;33497;-62
2023/04/06 06:02:54;;;;;;;3.95;2.33;;;;;;;8.42;32.36;99598.06;4419032;32;35035;-64
2023/04/06 06:05:22;;;;;;;11.52;5.10;;;;;;;8.45;32.97;99594.34;4419112;32;34977;-62
2023/04/06 06:07:50;;;;;;;11.23;5.53;;;;;;;8.52;33.94;99591.13;4416547;32;36415;-62
2023/04/06 06:10:18;;;;;;;5.68;2.58;;;;;;;8.20;33.46;99589.78;4428904;32;32639;-63
2023/04/06 06:12:46;;;;;;;7.22;4.28;;;;;;;8.31;33.43;99592.56;4419262;32;33727;-61
2023/04/06 06:15:13;;;;;;;3.17;2.25;;;;;;;8.49;34.07;99591.34;4418971;32;35094;-62
2023/04/06 06:17:41;;;;;;;3.70;2.85;;;;;;;8.81;32.22;99586.44;4415746;32;33568;-61
2023/04/06 06:20:10;;;;;;;6.07;4.18;;;;;;;8.34;33.89;99584.34;4427278;32;33884;-61
2023/04/06 06:22:37;;;;;;;9.75;3.28;;;;;;;8.15;33.96;99580.28;4430149;32;35106;-62
2023/04/06 06:25:06;;;;;;;3.00;2.37;;;;;;;7.52;33.74;99578.25;4420424;32;35016;-62
2023/04/06 06:27:34;;;;;;;9.60;4.25;;;;;;;8.04;33.51;99576.63;4418019;32;33293;-62
2023/04/06 06:30:03;;;;;;;3.75;3.37;;;;;;;8.06;32.84;99569.38;4420839;32;33623;-61
2023/04/06 06:32:31;;;;;;;2.97;2.70;;;;;;;7.72;34.09;99568.09;4418494;32;33723;-62
2023/04/06 06:34:59;;;;;;;10.23;3.65;;;;;;;7.58;33.78;99569.84;4425834;32;33050;-62
2023/04/06 06:37:27;;;;;;;8.10;3.33;;;;;;;7.69;33.04;99569.16;4421206;32;33399;-61
2023/04/06 06:39:57;;;;;;;2.55;2.05;;;;;;;8.29;32.24;99559.81;4418387;32;33513;-62
2023/04/06 06:42:25;;;;;;;6.65;3.97;;;;;;;8.54;32.18;99567.00;4406564;32;34896;-62
2023/04/06 06:44:54;;;;;;;2.30;2.00;;;;;;;8.75;32.56;99559.34;4417538;32;32912;-61
2023/04/06 06:47:23;;;;;;;16.33;5.25;;;;;;;8.65;32.85;99556.47;4417114;32;33303;-61
2023/04/06 06:49:50;;;;;;;6.53;2.95;;;;;;;8.80;32.65;99559.87;4420336;32;33690;-62
2023/04/06 06:52:18;;;;;;;9.90;3.42;;;;;;;8.62;32.96;99562.00;4421390;32;32893;-62
2023/04/06 06:54:46;;;;;;;3.97;3.40;;;;;;;8.84;31.84;99556.88;4425466;32;34399;-62
2023/04/06 06:57:14;;;;;;;3.62;3.30;;;;;;;8.96;31.21;99562.31;4426112;32;33527;-62
2023/04/06 06:59:41;;;;;;;4.47;3.12;;;;;;;8.95;31.46;99557.91;4422589;32;32627;-61
2023/04/06 07:02:09;;;;;;;3.25;2.47;;;;;;;9.07;31.60;99557.91;4420341;32;32529;-62
2023/04/06 07:04:36;;;;;;;10.43;2.95;;;;;;;9.03;32.13;99547.56;4419827;32;34204;-62
2023/04/06 07:07:04;;;;;;;4.18;2.58;;;;;;;8.59;32.56;99557.72;4418699;32;33503;-62
2023/04/06 07:09:33;;;;;;;3.72;3.00;;;;;;;8.82;31.91;99549.94;4421115;32;32268;-62
2023/04/06 07:12:01;;;;;;;4.18;2.35;;;;;;;8.61;32.10;99550.47;4418785;32;34122;-62
2023/04/06 07:14:29;;;;;;;4.75;2.53;;;;;;;9.05;32.19;99556.28;4415280;32;35088;-61
2023/04/06 07:16:57;;;;;;;2.55;2.33;;;;;;;9.29;31.49;99549.19;4413636;32;33604;-62
2023/04/06 07:19:24;;;;;;;3.05;2.35;;;;;;;9.23;32.37;99544.31;4419262;32;34012;-61
2023/04/06 07:21:52;;;;;;;3.78;3.08;;;;;;;9.02;31.70;99551.19;4421620;32;33779;-62
2023/04/06 07:24:20;;;;;;;5.80;5.03;;;;;;;9.17;30.75;99549.22;4425354;32;32911;-62
2023/04/06 07:26:47;;;;;;;3.20;1.85;;;;;;;8.96;32.58;99552.50;4420030;32;33594;-61
2023/04/06 07:29:15;;;;;;;4.07;3.75;;;;;;;9.28;30.71;99544.84;4420207;32;34642;-62
2023/04/06 07:31:43;;;;;;;3.60;2.75;;;;;;;8.78;32.09;99543.97;4420673;32;33909;-62
2023/04/06 07:34:10;;;;;;;2.85;1.80;;;;;;;8.83;31.80;99554.31;4419685;32;34783;-62
2023/04/06 07:36:39;;;;;;;5.37;1.95;;;;;;;9.55;31.51;99554.47;4420008;32;33247;-62
2023/04/06 07:39:07;;;;;;;7.62;4.95;;;;;;;9.23;31.51;99551.47;4421299;32;33748;-61
2023/04/06 07:41:34;;;;;;;5.55;3.53;;;;;;;8.50;32.17;99539.69;4420296;32;33751;-64
2023/04/06 07:44:03;;;;;;;4.93;3.42;;;;;;;9.12;32.57;99543.34;4426462;32;34148;-61
2023/04/06 07:46:31;;;;;;;7.03;3.03;;;;;;;8.94;32.43;99530.38;4418689;32;33331;-62
2023/04/06 07:49:00;;;;;;;11.02;4.75;;;;;;;8.95;32.40;99537.41;4419634;32;33945;-62
2023/04/06 07:51:29;;;;;;;2.45;2.05;;;;;;;9.57;31.46;99542.69;4425945;32;33716;-62
2023/04/06 07:53:57;;;;;;;5.65;3.35;;;;;;;9.29;32.58;99537.66;4425675;32;34631;-63
2023/04/06 07:56:25;;;;;;;4.53;3.55;;;;;;;8.75;32.21;99540.66;4418648;32;33541;-62
2023/04/06 07:58:55;;;;;;;3.83;3.35;;;;;;;9.72;31.43;99529.16;4421188;32;34736;-62
2023/04/06 08:01:23;;;;;;;2.72;2.22;;;;;;;8.58;33.75;99529.34;4425802;32;32798;-65
2023/04/06 08:03:50;;;;;;;6.20;3.70;;;;;;;9.62;31.55;99537.00;4424988;32;32917;-64
2023/04/06 08:06:18;;;;;;;6.05;3.10;;;;;;;10.28;29.82;99532.06;4419620;32;34864;-64
2023/04/06 08:08:45;;;;;;;4.72;2.55;;;;;;;9.06;30.92;99532.19;4421512;32;33677;-64
2023/04/06 08:11:13;;;;;;;6.80;3.55;;;;;;;9.48;30.76;99532.69;4418236;32;33596;-62
2023/04/06 08:13:41;;;;;;;2.25;1.85;;;;;;;9.61;30.83;99540.66;4420404;32;34111;-64
2023/04/06 08:16:08;;;;;;;3.80;3.08;;;;;;;10.39;29.08;99532.06;4422910;32;32433;-63
2023/04/06 08:18:36;;;;;;;3.72;2.87;;;;;;;10.22;30.72;99530.69;4420889;32;34017;-63
2023/04/06 08:21:04;;;;;;;7.28;4.03;;;;;;;9.96;29.93;99534.50;4419578;32;34807;-63
2023/04/06 08:23:31;;;;;;;5.20;2.78;;;;;;;9.97;31.53;99530.84;4419913;32;34184;-63
2023/04/06 08:25:59;;;;;;;4.40;1.90;;;;;;;9.56;31.20;99529.44;4420649;32;33709;-65
2023/04/06 08:28:27;;;;;;;4.57;2.87;;;;;;;10.01;31.57;99530.47;4419715;32;34707;-64
2023/04/06 08:30:54;;;;;;;5.90;3.25;;;;;;;9.98;31.61;99519.16;4418869;32;35297;-63
2023/04/06 08:33:22;;;;;;;23.80;4.75;;;;;;;9.96;30.88;99516.62;4424985;32;34981;-63
2023/04/06 08:35:49;;;;;;;3.83;3.20;;;;;;;10.58;30.05;99518.13;4420272;32;34697;-63
2023/04/06 08:38:17;;;;;;;7.87;3.83;;;;;;;9.86;30.40;99518.28;4420761;32;33864;-63
2023/04/06 08:40:47;;;;;;;4.37;2.92;;;;;;;9.36;31.88;99512.22;4423827;32;33681;-64
2023/04/06 08:43:17;;;;;;;4.25;3.15;;;;;;;10.37;30.99;99504.63;4421157;32;33316;-63
2023/04/06 08:45:45;;;;;;;3.20;2.22;;;;;;;10.25;30.11;99495.66;4418686;32;34800;-63
2023/04/06 08:48:12;;;;;;;5.22;2.97;;;;;;;10.80;29.21;99508.41;4417738;32;32317;-63
2023/04/06 08:50:40;;;;;;;6.75;4.05;;;;;;;10.39;30.67;99496.44;4418843;32;34994;-64
2023/04/06 08:53:08;;;;;;;4.53;3.28;;;;;;;10.67;30.22;99489.78;4422344;32;35280;-61
2023/04/06 08:55:35;;;;;;;5.15;3.80;;;;;;;11.74;29.23;99491.75;4418529;32;32513;-63
2023/04/06 08:58:04;;;;;;;3.97;2.72;;;;;;;10.96;30.00;99487.47;4419314;32;33505;-64
2023/04/06 09:00:32;;;;;;;4.55;2.70;;;;;;;10.71;29.50;99483.22;4427061;32;32932;-64
2023/04/06 09:02:59;;;;;;;5.20;3.47;;;;;;;11.23;29.91;99488.88;4422222;32;34856;-63
2023/04/06 09:05:27;;;;;;;8.43;4.65;;;;;;;11.38;29.17;99480.44;4420712;32;33472;-62
2023/04/06 09:07:55;;;;;;;4.30;2.92;;;;;;;10.78;29.04;99479.06;4425813;32;34099;-62
2023/04/06 09:10:24;;;;;;;6.65;3.87;;;;;;;11.51;27.05;99464.19;4422453;32;34103;-61
2023/04/06 09:13:02;;;;;;;5.68;3.33;;;;;;;10.41;30.39;99478.47;4419590;32;33924;-62
2023/04/06 09:15:30;;;;;;;8.70;3.67;;;;;;;10.66;29.79;99475.56;4419874;32;32412;-62
2023/04/06 09:17:58;;;;;;;5.75;3.35;;;;;;;10.99;28.47;99468.47;4421129;32;33402;-63
2023/04/06 09:20:27;;;;;;;5.68;3.53;;;;;;;11.34;29.46;99468.28;4421495;32;32860;-63
2023/04/06 09:22:55;;;;;;;7.68;2.60;;;;;;;11.78;27.43;99465.53;4418207;32;34936;-61
2023/04/06 09:25:26;;;;;;;7.20;3.10;;;;;;;11.22;27.94;99477.31;4421045;32;33376;-64
2023/04/06 09:28:02;;;;;;;4.47;3.20;;;;;;;11.54;28.70;99466.63;4420692;32;34306;-62
2023/04/06 09:30:30;;;;;;;15.82;2.97;;;;;;;11.04;27.42;99473.44;4420552;32;34064;-63
2023/04/06 09:32:58;;;;;;;6.90;3.78;;;;;;;11.72;25.73;99460.69;4419346;32;34882;-63
2023/04/06 09:35:27;;;;;;;4.50;3.25;;;;;;;11.29;26.11;99459.75;4419942;32;33309;-62
2023/04/06 09:37:55;;;;;;;5.55;3.30;;;;;;;11.28;27.11;99450.03;4419944;32;35076;-62
2023/04/06 09:40:24;;;;;;;3.92;2.40;;;;;;;11.48;26.41;99451.03;4418100;32;35163;-62
2023/04/06 09:42:52;;;;;;;5.43;3.15;;;;;;;11.79;26.45;99446.66;4422144;32;35513;-61
2023/04/06 09:45:20;;;;;;;6.28;3.58;;;;;;;11.67;27.56;99442.31;4417108;32;33496;-62
2023/04/06 09:47:49;;;;;;;5.65;3.87;;;;;;;11.28;25.85;99441.12;4423997;32;34625;-61
2023/04/06 09:50:19;;;;;;;5.32;2.67;;;;;;;11.35;26.20;99440.50;4422874;32;33966;-62
2023/04/06 09:52:51;;;;;;;5.47;2.95;;;;;;;10.44;27.19;99428.25;4421967;32;34191;-62
2023/04/06 09:55:31;;;;;;;4.47;3.08;;;;;;;10.28;28.06;99441.12;4417192;32;32459;-61
2023/04/06 09:58:06;;;;;;;7.00;3.05;;;;;;;10.33;27.94;99444.28;4419943;32;32375;-62
2023/04/06 10:00:44;;;;;;;2.92;2.35;;;;;;;10.20;28.24;99436.31;4415857;32;32784;-61
2023/04/06 10:03:18;;;;;;;4.55;3.05;;;;;;;10.64;28.24;99447.22;4415332;32;32936;-61
2023/04/06 10:05:52;;;;;;;5.12;3.55;;;;;;;10.63;28.28;99443.69;4417940;32;33369;-62
2023/04/06 10:08:22;;;;;;;4.40;2.17;;;;;;;10.76;29.53;99440.88;4417315;32;34568;-62
2023/04/06 10:10:50;;;;;;;5.80;2.50;;;;;;;10.68;29.13;99448.66;4419328;32;33566;-62
2023/04/06 10:13:18;;;;;;;6.45;2.80;;;;;;;10.91;27.85;99436.09;4416972;32;34735;-61
2023/04/06 10:15:46;;;;;;;5.68;3.70;;;;;;;10.80;27.39;99430.78;4421276;32;32325;-62
2023/04/06 10:18:14;;;;;;;2.28;1.70;;;;;;;11.28;26.50;99436.63;4419614;32;33875;-68
2023/04/06 10:20:42;;;;;;;5.75;2.85;;;;;;;12.02;25.90;99425.09;4415994;32;33787;-63
2023/04/06 10:23:20;;;;;;;4.03;2.80;;;;;;;12.18;25.75;99427.31;4422793;32;33983;-62
2023/04/06 10:26:16;;;;;;;3.03;2.65;;;;;;;12.31;26.19;99419.91;4420279;32;32981;-62
2023/04/06 10:28:45;;;;;;;3.17;2.05;;;;;;;11.95;25.34;99422.09;4419790;32;33920;-62
2023/04/06 10:31:13;;;;;;;9.25;4.10;;;;;;;12.30;25.07;99411.00;4421381;32;33548;-62
2023/04/06 10:33:41;;;;;;;5.22;2.37;;;;;;;12.35;25.55;99418.62;4412122;32;33972;-62
2023/04/06 10:36:22;;;;;;;3.75;1.87;;;;;;;12.85;24.69;99407.97;4417751;32;34670;-61
2023/04/06 10:38:54;;;;;;;6.15;3.83;;;;;;;12.94;23.56;99408.97;4416658;32;34554;-62
2023/04/06 10:41:22;;;;;;;8.80;2.03;;;;;;;12.47;24.97;99406.84;4419937;32;33852;-62
2023/04/06 10:43:56;;;;;;;5.47;3.75;;;;;;;12.81;24.79;99402.00;4420313;32;31920;-62
2023/04/06 10:46:31;;;;;;;4.72;2.95;;;;;;;11.55;25.93;99406.66;4417331;32;33331;-61
2023/04/06 10:49:11;;;;;;;3.40;2.67;;;;;;;12.08;25.11;99403.97;4415926;32;33610;-62
2023/04/06 10:51:39;;;;;;;7.43;2.85;;;;;;;12.35;25.76;99403.38;4416199;32;34117;-62
2023/04/06 10:54:07;;;;;;;3.97;2.50;;;;;;;12.61;25.94;99397.53;4413519;32;34828;-61
2023/04/06 10:56:37;;;;;;;4.25;2.53;;;;;;;12.31;25.98;99393.91;4420526;32;32940;-62
2023/04/06 10:59:05;;;;;;;6.62;3.25;;;;;;;12.85;25.45;99393.69;4418478;32;33703;-62
2023/04/06 11:01:33;;;;;;;5.15;3.12;;;;;;;12.55;25.57;99390.91;4418658;32;34131;-61
2023/04/06 11:04:01;;;;;;;5.82;2.75;;;;;;;12.30;25.91;99384.16;4412764;32;33835;-61
2023/04/06 11:06:30;;;;;;;6.70;3.60;;;;;;;12.82;25.62;99386.75;4421410;32;33682;-61
2023/04/06 11:08:58;;;;;;;9.43;4.10;;;;;;;12.20;25.73;99383.28;4413693;32;33583;-62
2023/04/06 11:11:26;;;;;;;6.60;4.22;;;;;;;12.98;26.36;99379.00;4412983;32;33816;-62
2023/04/06 11:13:59;;;;;;;6.57;3.37;;;;;;;12.27;26.63;99383.59;4411755;32;34961;-62
2023/04/06 11:16:30;;;;;;;7.10;3.33;;;;;;;12.14;26.44;99378.44;4414975;32;33512;-62
2023/04/06 11:18:59;;;;;;;6.55;3.87;;;;;;;12.12;26.19;99380.41;4418916;32;34950;-61
2023/04/06 11:21:49;;;;;;;5.10;3.25;;;;;;;11.97;26.80;99385.25;4415559;32;32750;-62
2023/04/06 11:24:22;;;;;;;6.05;3.60;;;;;;;12.33;26.57;99378.53;4407817;32;35179;-62
2023/04/06 11:26:52;;;;;;;6.30;2.65;;;;;;;11.81;27.57;99380.34;4408760;32;33377;-62
2023/04/06 11:29:21;;;;;;;8.98;3.08;;;;;;;11.95;27.02;99379.19;4413582;32;33985;-62
2023/04/06 11:31:51;;;;;;;3.60;2.50;;;;;;;11.45;27.82;99378.94;4417274;32;34743;-62
2023/04/06 11:34:21;;;;;;;4.18;2.83;;;;;;;12.27;26.78;99372.84;4416999;32;34495;-62
2023/04/06 11:36:54;;;;;;;4.07;3.05;;;;;;;12.43;26.54;99373.19;4420505;32;33298;-62
2023/04/06 11:39:24;;;;;;;4.12;2.17;;;;;;;12.41;27.04;99368.94;4409298;32;33879;-61
2023/04/06 11:41:54;;;;;;;6.43;3.50;;;;;;;12.17;27.07;99374.66;4413038;32;34231;-62
2023/04/06 11:44:39;;;;;;;3.75;2.40;;;;;;;12.31;25.91;99361.69;4412491;32;34017;-62
2023/04/06 11:47:08;;;;;;;9.02;4.40;;;;;;;12.18;26.36;99371.81;4414139;32;33606;-69